CST,Max TemperatureF,Mean TemperatureF,Min TemperatureF,Max Dew PointF,MeanDew PointF,Min DewpointF,Max Humidity, Mean Humidity, Min Humidity, Max Sea Level PressureIn, Mean Sea Level PressureIn, Min Sea Level PressureIn, Max VisibilityMiles, Mean VisibilityMiles, Min VisibilityMiles, Max Wind SpeedMPH, Mean Wind SpeedMPH, Max Gust SpeedMPH,PrecipitationIn, CloudCover, Events, WindDirDegrees
2013-1-1,55,54,53,54,53,52,96,94,93,30.13,30.02,29.96,10,6,1,7,3,,0.00,1,,134
2013-1-2,57,55,53,47,46,45,77,73,69,30.17,30.09,30.00,10,10,10,13,12,,0.00,8,,352
2013-1-3,45,44,42,41,40,39,89,84,80,30.34,30.25,30.18,10,10,10,13,10,21,0.01,8,Rain,353
2013-1-4,57,47,37,35,31,27,86,57,31,30.39,30.35,30.32,10,10,10,13,9,,0.00,0,,358
2013-1-5,55,47,39,38,32,28,65,56,41,30.37,30.29,30.21,10,10,10,10,7,,0.00,2,,46
2013-1-6,52,49,45,45,40,36,86,71,56,30.25,30.20,30.16,10,10,10,12,6,,0.00,6,Rain,14
2013-1-7,63,50,37,37,36,34,89,63,34,30.30,30.23,30.17,10,10,10,13,7,,0.00,0,,52
2013-1-8,64,54,45,56,49,37,82,74,64,30.28,30.20,30.14,10,10,9,12,6,,0.00,7,,79
2013-1-9,68,64,60,65,60,55,94,87,77,30.28,30.21,30.16,10,8,2,12,7,,0.01,8,,79
2013-1-10,72,68,64,66,64,61,94,88,81,30.28,30.20,30.05,10,10,5,17,13,23,0.21,7,Rain,143
2013-1-11,75,68,60,67,64,60,100,88,71,30.17,30.10,30.05,10,9,2,16,7,23,0.00,6,,154
2013-1-12,,,,,,,,,,30.14,30.08,30.02,,,,,,,0.00,,,-1
2013-1-13,75,73,71,69,68,66,93,84,73,30.04,30.01,29.97,10,10,10,17,14,30,0.12,8,,175
2013-1-14,78,66,54,70,66,53,100,89,68,30.12,30.05,29.99,10,8,1,17,10,26,0.12,7,Rain,189
2013-1-15,75,64,54,70,65,53,100,91,79,30.04,29.98,29.91,10,7,2,18,7,26,0.75,8,Rain,191
2013-1-16,71,58,46,69,57,44,97,92,88,30.02,29.95,29.90,10,8,2,13,8,20,0.80,8,Rain,296
2013-1-17,45,41,37,43,36,31,96,81,61,30.27,30.10,29.98,10,10,6,18,9,29,0.02,6,,300
2013-1-18,60,48,33,35,33,31,93,66,33,30.47,30.39,30.29,10,10,10,13,9,21,0.00,0,,9
2013-1-19,64,47,30,45,37,28,93,67,43,30.39,30.30,30.22,10,10,10,9,4,,0.00,2,,47
2013-1-20,66,52,37,45,41,36,93,72,38,30.24,30.17,30.10,10,10,10,8,1,,0.00,0,,312
2013-1-21,66,52,39,46,39,37,96,67,34,30.18,30.13,30.08,10,9,2,9,5,,0.00,0,,333
2013-1-22,60,48,37,37,31,22,86,59,28,30.33,30.27,30.17,10,10,10,12,6,,0.00,0,,10
2013-1-23,64,48,32,48,40,30,92,71,44,30.39,30.31,30.27,10,10,10,12,2,,0.00,1,,163
2013-1-24,73,60,48,54,50,46,93,74,41,30.31,30.25,30.20,10,10,7,9,3,,0.00,1,,273
2013-1-25,69,58,46,55,50,45,100,86,54,30.30,30.23,30.14,10,5,0,16,2,24,0.01,2,Fog,117
2013-1-26,72,62,53,59,55,52,100,83,59,30.27,30.20,30.15,10,9,2,8,2,,0.00,3,,348
2013-1-27,71,60,48,56,52,46,100,81,55,30.30,30.25,30.22,10,8,1,8,2,,0.00,2,,96
2013-1-28,73,65,57,63,59,54,96,85,65,30.32,30.23,30.14,10,9,5,13,8,,0.00,5,,120
2013-1-29,77,72,66,70,66,63,93,83,66,30.13,30.02,29.88,10,10,10,20,11,30,0.13,8,,161
2013-1-30,75,60,44,70,60,30,94,86,58,30.06,29.78,29.65,10,8,2,28,18,47,0.63,7,Rain-Thunderstorm,232
2013-1-31,57,45,33,34,28,21,89,54,24,30.28,30.19,30.08,10,10,10,17,7,25,0.00,0,,320